Wolf 59 — CGBP — position and weather

sailwx.info

Track history (hours):
 
Tides and Currents Weather Stations Pressure Air Temp Water Temp Dewpoint Dewpoint Depression Visibility Wind Speed Wind Dir Waves Ship Positions

Wolf 59

Last reported at 2015-Mar-05 22:33 UTC. Time now 2015-Mar-06 21:43 UTC.
Position N 48°26' W 123°26'.

Length 33 m; draft 2.6 m.

Type: Military. MMSI: 316011515.

Date/timePositionNaut miles runAvg speedWind from/ knotsBaromVisibWave heightAir tempDewpointWater temp
2015-Mar-05 22:33N 48°26' W 123°26'5 5.3
2015-Mar-05 21:33N 48°21' W 123°25'3 3.4
2015-Mar-05 20:33N 48°19' W 123°20'1 0.5
2015-Mar-05 19:33N 48°19' W 123°21'0 0.4
2015-Mar-05 18:33N 48°19' W 123°21'2 1.9
2015-Mar-05 17:33N 48°19' W 123°18'3 2.6
2015-Mar-05 16:33N 48°19' W 123°22'6 6.1
2015-Mar-05 15:33N 48°22' W 123°14'1716.8
2015-Mar-05 14:34N 48°39' W 123°15'1313.1
2015-Mar-05 13:33N 48°48' W 123°01'1514.7
2015-Mar-05 12:34N 48°58' W 123°16'1413.5
2015-Mar-05 11:31N 49°08' W 123°32'8 8.1
2015-Mar-05 10:30N 49°14' W 123°40'8 7.6
2015-Mar-05 09:24N 49°18' W 123°51'6 7.3
2015-Mar-05 08:33N 49°18' W 124°01'7 5.0
2015-Mar-05 07:06N 49°23' W 123°54'1610.3
2015-Mar-05 05:33N 49°20' W 123°30'1312.6
2015-Mar-05 04:33N 49°19' W 123°10'3 2.7
2015-Mar-05 03:33N 49°18' W 123°07'1 0.5
2015-Mar-05 02:33N 49°18' W 123°06'8 8.4
2015-Mar-05 01:33N 49°20' W 123°19'6 5.7
2015-Mar-05 00:32N 49°25' W 123°18'2 1.8
2015-Mar-04 23:32N 49°24' W 123°15'6 5.6
2015-Mar-04 22:32N 49°19' W 123°15'4 4.0
2015-Mar-04 21:34N 49°17' W 123°10'0 0.0
2015-Mar-04 20:33N 49°17' W 123°10'0 0.4
2015-Mar-04 19:34N 49°17' W 123°10'7 7.4
2015-Mar-04 18:33N 49°22' W 123°19'5 5.1
2015-Mar-04 17:33N 49°26' W 123°17'9 8.3
2015-Mar-04 16:31N 49°23' W 123°29'1616.6
2015-Mar-04 15:33N 49°23' W 123°53'1712.9
2015-Mar-04 14:14N 49°36' W 124°11'7 8.6
2015-Mar-04 13:25N 49°42' W 124°17'3 2.9
2015-Mar-04 12:31N 49°44' W 124°14'16 6.6
2015-Mar-04 10:05N 49°51' W 124°36'4 5.6
2015-Mar-04 09:26N 49°52' W 124°42'5 5.1
2015-Mar-04 08:29N 49°47' W 124°44'7 7.2
2015-Mar-04 07:33N 49°42' W 124°38'9 9.1
2015-Mar-04 06:32N 49°34' W 124°31'8 8.4
2015-Mar-04 05:33N 49°27' W 124°25'5 5.1
2015-Mar-04 04:29N 49°24' W 124°17'6 5.9
2015-Mar-04 03:32N 49°23' W 124°09'8 8.5
2015-Mar-04 02:33N 49°19' W 123°57'9 9.3
2015-Mar-04 01:33N 49°16' W 123°44'9 9.1
2015-Mar-04 00:33N 49°09' W 123°36'2 2.1
2015-Mar-03 23:33N 49°11' W 123°37'4 4.4
2015-Mar-03 22:33N 49°10' W 123°43'2 2.0
2015-Mar-03 21:34N 49°12' W 123°46'6 6.3
2015-Mar-03 20:33N 49°09' W 123°37'4 3.6
2015-Mar-03 19:33N 49°06' W 123°34'3 3.2
2015-Mar-03 18:33N 49°09' W 123°37'4 4.5
2015-Mar-03 17:34N 49°12' W 123°33'4 3.7
2015-Mar-03 16:33N 49°09' W 123°35'1 1.5
2015-Mar-03 15:34N 49°08' W 123°36'7 7.0
2015-Mar-03 14:32N 49°13' W 123°44'5 5.4
2015-Mar-03 13:33N 49°18' W 123°44'6 6.2
2015-Mar-03 12:34N 49°17' W 123°35'8 8.0
2015-Mar-03 11:33N 49°12' W 123°25'6 5.9
2015-Mar-03 10:33N 49°07' W 123°20'9 9.1
2015-Mar-03 09:34N 48°59' W 123°12'3 3.3
2015-Mar-03 08:34N 48°56' W 123°12'8 8.2
2015-Mar-03 07:33N 49°02' W 123°21'8 7.5
2015-Mar-03 06:33N 49°04' W 123°32'7 6.9
2015-Mar-03 05:33N 48°58' W 123°37'10 9.8
2015-Mar-03 04:33N 48°49' W 123°34'6 6.4
2015-Mar-03 03:33N 48°43' W 123°31'7 7.2
2015-Mar-03 02:34N 48°38' W 123°23'2 1.5
2015-Mar-03 01:34N 48°36' W 123°22'2 1.5
2015-Mar-03 00:33N 48°38' W 123°23'14 9.6
2015-Mar-02 23:08N 48°25' W 123°17'5 8.8
2015-Mar-02 22:34N 48°21' W 123°22'0 0.3
2015-Mar-02 21:34N 48°21' W 123°21'1 0.6
2015-Mar-02 20:34N 48°20' W 123°21'2 2.2
2015-Mar-02 19:33N 48°21' W 123°23'6 5.6
2015-Mar-02 18:34N 48°26' W 123°27'0 0.0
2015-Mar-02 17:33N 48°26' W 123°27'0 0.0
2015-Mar-02 16:33N 48°26' W 123°27'4 3.6
2015-Mar-02 15:33N 48°23' W 123°28'3 2.9
2015-Mar-02 14:33N 48°20' W 123°29'7 7.1
2015-Mar-02 13:33N 48°23' W 123°20'8 8.5
2015-Mar-02 12:33N 48°30' W 123°13'1111.1
2015-Mar-02 11:33N 48°41' W 123°16'9 9.2
2015-Mar-02 10:33N 48°46' W 123°04'5 5.5
2015-Mar-02 09:34N 48°51' W 123°04'10 9.6
2015-Mar-02 08:34N 48°58' W 123°14'2 1.8
2015-Mar-02 07:33N 48°59' W 123°12'9 9.1
2015-Mar-02 06:33N 48°52' W 123°02'8 8.1
2015-Mar-02 05:33N 48°45' W 123°05'7 7.1
2015-Mar-02 04:32N 48°41' W 123°15'9 9.7
2015-Mar-02 03:34N 48°32' W 123°11'9 8.3
2015-Mar-02 02:32N 48°24' W 123°12'8 7.8
2015-Mar-02 01:31N 48°20' W 123°23'5 4.3
2015-Mar-02 00:26N 48°21' W 123°30'1 1.4
2015-Mar-01 23:32N 48°22' W 123°28'1 1.0
2015-Mar-01 22:29N 48°21' W 123°30'1 0.9
2015-Mar-01 21:34N 48°20' W 123°30'2 2.0
2015-Mar-01 20:33N 48°21' W 123°27'5 4.7
2015-Mar-01 19:24N 48°26' W 123°26'0 0.0
2015-Mar-01 06:12N 48°26' W 123°26'0 0.0
2015-Mar-01 04:09N 48°26' W 123°26'0 0.0
2015-Mar-01 03:24N 48°26' W 123°26'0 0.0
2015-Mar-01 02:33N 48°26' W 123°26'0 0.0
2015-Mar-01 00:30N 48°26' W 123°26'0 0.0
2015-Feb-28 22:12N 48°26' W 123°26'0 0.0
2015-Feb-27 21:18N 48°26' W 123°26'0 0.0
2015-Feb-27 18:33N 48°26' W 123°26'0 0.0
2015-Feb-27 17:30N 48°26' W 123°26'2 2.0
2015-Feb-27 16:33N 48°24' W 123°28'1 0.5
2015-Feb-27 15:33N 48°25' W 123°27'6 6.4
2015-Feb-27 14:33N 48°23' W 123°18'7 7.1
2015-Feb-27 13:33N 48°29' W 123°12'9 9.2
2015-Feb-27 12:33N 48°38' W 123°15'8 7.5
2015-Feb-27 11:33N 48°44' W 123°09'1 0.9
2015-Feb-27 10:33N 48°44' W 123°07'7 6.7
2015-Feb-27 09:33N 48°39' W 123°14'6 5.8
2015-Feb-27 08:33N 48°43' W 123°21'8 8.2
2015-Feb-27 07:32N 48°51' W 123°21'6 6.0
2015-Feb-27 06:33N 48°56' W 123°17'7 6.7
2015-Feb-27 05:33N 49°02' W 123°22'8 7.7
2015-Feb-27 04:33N 49°10' W 123°23'8 8.5
2015-Feb-27 03:33N 49°18' W 123°21'9 8.4
2015-Feb-27 02:32N 49°27' W 123°18'2 1.7
2015-Feb-27 01:33N 49°27' W 123°15'10 7.8
2015-Feb-27 00:17N 49°23' W 123°29'4 5.1
2015-Feb-26 23:31N 49°22' W 123°35'4 2.6
2015-Feb-26 22:08N 49°19' W 123°32'5 9.1
2015-Feb-26 21:33N 49°13' W 123°32'4 4.3
2015-Feb-26 20:34N 49°17' W 123°33'2 1.9
2015-Feb-26 19:34N 49°19' W 123°35'8 7.8
2015-Feb-26 18:29N 49°24' W 123°26'2 2.4
2015-Feb-26 17:31N 49°24' W 123°29'1 0.8
2015-Feb-26 16:22N 49°25' W 123°28'3 3.2
2015-Feb-26 15:33N 49°22' W 123°30'9 8.7
2015-Feb-26 14:33N 49°22' W 123°43'9 9.1
2015-Feb-26 13:33N 49°23' W 123°57'4 3.6
2015-Feb-26 12:33N 49°21' W 124°01'9 8.6
2015-Feb-26 11:33N 49°18' W 123°49'9 8.6
2015-Feb-26 10:33N 49°15' W 123°36'9 8.5
2015-Feb-26 09:33N 49°09' W 123°27'9 8.6
2015-Feb-26 08:33N 49°03' W 123°18'8 7.9
2015-Feb-26 07:33N 48°57' W 123°09'9 9.0
2015-Feb-26 06:32N 48°51' W 122°59'8 8.5
2015-Feb-26 05:33N 48°44' W 123°06'8 8.0
2015-Feb-26 04:33N 48°38' W 123°14'8 7.7
2015-Feb-26 03:33N 48°31' W 123°15'4 4.2
2015-Feb-26 02:33N 48°28' W 123°10'8 8.3
2015-Feb-26 01:33N 48°22' W 123°19'6 6.0
2015-Feb-26 00:33N 48°23' W 123°28'1 0.8
2015-Feb-25 23:33N 48°24' W 123°27'5 4.6
2015-Feb-25 22:33N 48°20' W 123°30'2 1.6
2015-Feb-25 21:31N 48°21' W 123°29'6 6.3
2015-Feb-25 20:33N 48°19' W 123°21'1 1.0
2015-Feb-25 19:33N 48°19' W 123°20'2 1.9
2015-Feb-25 18:33N 48°20' W 123°17'2 2.5
2015-Feb-25 17:33N 48°22' W 123°16'2 1.6
2015-Feb-25 16:33N 48°20' W 123°16'2 1.6
2015-Feb-25 15:33N 48°19' W 123°18'7 7.0
2015-Feb-25 14:33N 48°25' W 123°12'9 8.6
2015-Feb-25 13:33N 48°34' W 123°13'9 8.5
2015-Feb-25 12:33N 48°42' W 123°16'9 9.2
2015-Feb-25 11:33N 48°51' W 123°22'1210.2
2015-Feb-25 10:22N 48°59' W 123°35'1 0.9
2015-Feb-25 09:31N 48°58' W 123°35'8 8.7
2015-Feb-25 08:32N 48°53' W 123°26'7 7.0
2015-Feb-25 07:33N 48°47' W 123°20'5 5.4
2015-Feb-25 06:33N 48°43' W 123°26'4 3.9
2015-Feb-25 05:30N 48°40' W 123°30'3 3.5
2015-Feb-25 04:33N 48°43' W 123°31'7 6.9
2015-Feb-25 03:33N 48°43' W 123°20'8 7.6
2015-Feb-25 02:34N 48°37' W 123°13'8 8.3
2015-Feb-25 01:34N 48°29' W 123°10'8 8.3
2015-Feb-25 00:34N 48°22' W 123°18'6 5.5
2015-Feb-24 23:33N 48°22' W 123°26'4 4.4
2015-Feb-24 22:33N 48°19' W 123°31'3 3.1
2015-Feb-24 21:34N 48°22' W 123°29'2 2.2
2015-Feb-24 20:33N 48°20' W 123°29'4 3.6
2015-Feb-24 19:33N 48°21' W 123°24'4 4.5
2015-Feb-24 18:34N 48°18' W 123°19'3 2.7
2015-Feb-24 17:33N 48°18' W 123°15'2 2.4
2015-Feb-24 16:33N 48°19' W 123°18'4 4.5
2015-Feb-24 15:33N 48°23' W 123°17'7 7.2
2015-Feb-24 14:33N 48°29' W 123°12'9 8.5
2015-Feb-24 13:33N 48°38' W 123°15'8 7.7
2015-Feb-24 12:33N 48°45' W 123°21'1 1.3
2015-Feb-24 11:28N 48°45' W 123°23'7 6.7
2015-Feb-24 10:28N 48°52' W 123°25'2 2.3
2015-Feb-24 09:31N 48°51' W 123°22'6 6.1
2015-Feb-24 08:33N 48°45' W 123°22'4 3.7
2015-Feb-24 07:33N 48°43' W 123°27'9 8.6
2015-Feb-24 06:33N 48°40' W 123°15'2 2.5
2015-Feb-24 05:33N 48°42' W 123°16'8 7.5
2015-Feb-24 04:33N 48°45' W 123°05'8 8.2
2015-Feb-24 03:33N 48°53' W 123°02'1111.2
2015-Feb-24 02:33N 48°43' W 123°09'1312.7
2015-Feb-24 01:33N 48°31' W 123°14'9 9.3
2015-Feb-24 00:34N 48°22' W 123°18'6 5.6
2015-Feb-23 23:33N 48°24' W 123°26'1 0.8
2015-Feb-23 22:33N 48°24' W 123°27'  
Track history (hours):
 
Tides and Currents Weather Stations Pressure Air Temp Water Temp Dewpoint Dewpoint Depression Visibility Wind Speed Wind Dir Waves Ship Positions

Wolf 59

Last reported at 2015-Mar-05 22:33 UTC. Time now 2015-Mar-06 21:43 UTC.
Position N 48°26' W 123°26'.

Length 33 m; draft 2.6 m.

Type: Military. MMSI: 316011515.

Date/timePositionNaut miles runAvg speedWind from/ knotsBaromVisibWave heightAir tempDewpointWater temp
2015-Mar-05 22:33N 48°26' W 123°26'5 5.3
2015-Mar-05 21:33N 48°21' W 123°25'3 3.4
2015-Mar-05 20:33N 48°19' W 123°20'1 0.5
2015-Mar-05 19:33N 48°19' W 123°21'0 0.4
2015-Mar-05 18:33N 48°19' W 123°21'2 1.9
2015-Mar-05 17:33N 48°19' W 123°18'3 2.6
2015-Mar-05 16:33N 48°19' W 123°22'6 6.1
2015-Mar-05 15:33N 48°22' W 123°14'1716.8
2015-Mar-05 14:34N 48°39' W 123°15'1313.1
2015-Mar-05 13:33N 48°48' W 123°01'1514.7
2015-Mar-05 12:34N 48°58' W 123°16'1413.5
2015-Mar-05 11:31N 49°08' W 123°32'8 8.1
2015-Mar-05 10:30N 49°14' W 123°40'8 7.6
2015-Mar-05 09:24N 49°18' W 123°51'6 7.3
2015-Mar-05 08:33N 49°18' W 124°01'7 5.0
2015-Mar-05 07:06N 49°23' W 123°54'1610.3
2015-Mar-05 05:33N 49°20' W 123°30'1312.6
2015-Mar-05 04:33N 49°19' W 123°10'3 2.7
2015-Mar-05 03:33N 49°18' W 123°07'1 0.5
2015-Mar-05 02:33N 49°18' W 123°06'8 8.4
2015-Mar-05 01:33N 49°20' W 123°19'6 5.7
2015-Mar-05 00:32N 49°25' W 123°18'2 1.8
2015-Mar-04 23:32N 49°24' W 123°15'6 5.6
2015-Mar-04 22:32N 49°19' W 123°15'4 4.0
2015-Mar-04 21:34N 49°17' W 123°10'0 0.0
2015-Mar-04 20:33N 49°17' W 123°10'0 0.4
2015-Mar-04 19:34N 49°17' W 123°10'7 7.4
2015-Mar-04 18:33N 49°22' W 123°19'5 5.1
2015-Mar-04 17:33N 49°26' W 123°17'9 8.3
2015-Mar-04 16:31N 49°23' W 123°29'1616.6
2015-Mar-04 15:33N 49°23' W 123°53'1712.9
2015-Mar-04 14:14N 49°36' W 124°11'7 8.6
2015-Mar-04 13:25N 49°42' W 124°17'3 2.9
2015-Mar-04 12:31N 49°44' W 124°14'16 6.6
2015-Mar-04 10:05N 49°51' W 124°36'4 5.6
2015-Mar-04 09:26N 49°52' W 124°42'5 5.1
2015-Mar-04 08:29N 49°47' W 124°44'7 7.2
2015-Mar-04 07:33N 49°42' W 124°38'9 9.1
2015-Mar-04 06:32N 49°34' W 124°31'8 8.4
2015-Mar-04 05:33N 49°27' W 124°25'5 5.1
2015-Mar-04 04:29N 49°24' W 124°17'6 5.9
2015-Mar-04 03:32N 49°23' W 124°09'8 8.5
2015-Mar-04 02:33N 49°19' W 123°57'9 9.3
2015-Mar-04 01:33N 49°16' W 123°44'9 9.1
2015-Mar-04 00:33N 49°09' W 123°36'2 2.1
2015-Mar-03 23:33N 49°11' W 123°37'4 4.4
2015-Mar-03 22:33N 49°10' W 123°43'2 2.0
2015-Mar-03 21:34N 49°12' W 123°46'6 6.3
2015-Mar-03 20:33N 49°09' W 123°37'4 3.6
2015-Mar-03 19:33N 49°06' W 123°34'3 3.2
2015-Mar-03 18:33N 49°09' W 123°37'4 4.5
2015-Mar-03 17:34N 49°12' W 123°33'4 3.7
2015-Mar-03 16:33N 49°09' W 123°35'1 1.5
2015-Mar-03 15:34N 49°08' W 123°36'7 7.0
2015-Mar-03 14:32N 49°13' W 123°44'5 5.4
2015-Mar-03 13:33N 49°18' W 123°44'6 6.2
2015-Mar-03 12:34N 49°17' W 123°35'8 8.0
2015-Mar-03 11:33N 49°12' W 123°25'6 5.9
2015-Mar-03 10:33N 49°07' W 123°20'9 9.1
2015-Mar-03 09:34N 48°59' W 123°12'3 3.3
2015-Mar-03 08:34N 48°56' W 123°12'8 8.2
2015-Mar-03 07:33N 49°02' W 123°21'8 7.5
2015-Mar-03 06:33N 49°04' W 123°32'7 6.9
2015-Mar-03 05:33N 48°58' W 123°37'10 9.8
2015-Mar-03 04:33N 48°49' W 123°34'6 6.4
2015-Mar-03 03:33N 48°43' W 123°31'7 7.2
2015-Mar-03 02:34N 48°38' W 123°23'2 1.5
2015-Mar-03 01:34N 48°36' W 123°22'2 1.5
2015-Mar-03 00:33N 48°38' W 123°23'14 9.6
2015-Mar-02 23:08N 48°25' W 123°17'5 8.8
2015-Mar-02 22:34N 48°21' W 123°22'0 0.3
2015-Mar-02 21:34N 48°21' W 123°21'1 0.6
2015-Mar-02 20:34N 48°20' W 123°21'2 2.2
2015-Mar-02 19:33N 48°21' W 123°23'6 5.6
2015-Mar-02 18:34N 48°26' W 123°27'0 0.0
2015-Mar-02 17:33N 48°26' W 123°27'0 0.0
2015-Mar-02 16:33N 48°26' W 123°27'4 3.6
2015-Mar-02 15:33N 48°23' W 123°28'3 2.9
2015-Mar-02 14:33N 48°20' W 123°29'7 7.1
2015-Mar-02 13:33N 48°23' W 123°20'8 8.5
2015-Mar-02 12:33N 48°30' W 123°13'1111.1
2015-Mar-02 11:33N 48°41' W 123°16'9 9.2
2015-Mar-02 10:33N 48°46' W 123°04'5 5.5
2015-Mar-02 09:34N 48°51' W 123°04'10 9.6
2015-Mar-02 08:34N 48°58' W 123°14'2 1.8
2015-Mar-02 07:33N 48°59' W 123°12'9 9.1
2015-Mar-02 06:33N 48°52' W 123°02'8 8.1
2015-Mar-02 05:33N 48°45' W 123°05'7 7.1
2015-Mar-02 04:32N 48°41' W 123°15'9 9.7
2015-Mar-02 03:34N 48°32' W 123°11'9 8.3
2015-Mar-02 02:32N 48°24' W 123°12'8 7.8
2015-Mar-02 01:31N 48°20' W 123°23'5 4.3
2015-Mar-02 00:26N 48°21' W 123°30'1 1.4
2015-Mar-01 23:32N 48°22' W 123°28'1 1.0
2015-Mar-01 22:29N 48°21' W 123°30'1 0.9
2015-Mar-01 21:34N 48°20' W 123°30'2 2.0
2015-Mar-01 20:33N 48°21' W 123°27'5 4.7
2015-Mar-01 19:24N 48°26' W 123°26'0 0.0
2015-Mar-01 06:12N 48°26' W 123°26'0 0.0
2015-Mar-01 04:09N 48°26' W 123°26'0 0.0
2015-Mar-01 03:24N 48°26' W 123°26'0 0.0
2015-Mar-01 02:33N 48°26' W 123°26'0 0.0
2015-Mar-01 00:30N 48°26' W 123°26'0 0.0
2015-Feb-28 22:12N 48°26' W 123°26'0 0.0
2015-Feb-27 21:18N 48°26' W 123°26'0 0.0
2015-Feb-27 18:33N 48°26' W 123°26'0 0.0
2015-Feb-27 17:30N 48°26' W 123°26'2 2.0
2015-Feb-27 16:33N 48°24' W 123°28'1 0.5
2015-Feb-27 15:33N 48°25' W 123°27'6 6.4
2015-Feb-27 14:33N 48°23' W 123°18'7 7.1
2015-Feb-27 13:33N 48°29' W 123°12'9 9.2
2015-Feb-27 12:33N 48°38' W 123°15'8 7.5
2015-Feb-27 11:33N 48°44' W 123°09'1 0.9
2015-Feb-27 10:33N 48°44' W 123°07'7 6.7
2015-Feb-27 09:33N 48°39' W 123°14'6 5.8
2015-Feb-27 08:33N 48°43' W 123°21'8 8.2
2015-Feb-27 07:32N 48°51' W 123°21'6 6.0
2015-Feb-27 06:33N 48°56' W 123°17'7 6.7
2015-Feb-27 05:33N 49°02' W 123°22'8 7.7
2015-Feb-27 04:33N 49°10' W 123°23'8 8.5
2015-Feb-27 03:33N 49°18' W 123°21'9 8.4
2015-Feb-27 02:32N 49°27' W 123°18'2 1.7
2015-Feb-27 01:33N 49°27' W 123°15'10 7.8
2015-Feb-27 00:17N 49°23' W 123°29'4 5.1
2015-Feb-26 23:31N 49°22' W 123°35'4 2.6
2015-Feb-26 22:08N 49°19' W 123°32'5 9.1
2015-Feb-26 21:33N 49°13' W 123°32'4 4.3
2015-Feb-26 20:34N 49°17' W 123°33'2 1.9
2015-Feb-26 19:34N 49°19' W 123°35'8 7.8
2015-Feb-26 18:29N 49°24' W 123°26'2 2.4
2015-Feb-26 17:31N 49°24' W 123°29'1 0.8
2015-Feb-26 16:22N 49°25' W 123°28'3 3.2
2015-Feb-26 15:33N 49°22' W 123°30'9 8.7
2015-Feb-26 14:33N 49°22' W 123°43'9 9.1
2015-Feb-26 13:33N 49°23' W 123°57'4 3.6
2015-Feb-26 12:33N 49°21' W 124°01'9 8.6
2015-Feb-26 11:33N 49°18' W 123°49'9 8.6
2015-Feb-26 10:33N 49°15' W 123°36'9 8.5
2015-Feb-26 09:33N 49°09' W 123°27'9 8.6
2015-Feb-26 08:33N 49°03' W 123°18'8 7.9
2015-Feb-26 07:33N 48°57' W 123°09'9 9.0
2015-Feb-26 06:32N 48°51' W 122°59'8 8.5
2015-Feb-26 05:33N 48°44' W 123°06'8 8.0
2015-Feb-26 04:33N 48°38' W 123°14'8 7.7
2015-Feb-26 03:33N 48°31' W 123°15'4 4.2
2015-Feb-26 02:33N 48°28' W 123°10'8 8.3
2015-Feb-26 01:33N 48°22' W 123°19'6 6.0
2015-Feb-26 00:33N 48°23' W 123°28'1 0.8
2015-Feb-25 23:33N 48°24' W 123°27'5 4.6
2015-Feb-25 22:33N 48°20' W 123°30'2 1.6
2015-Feb-25 21:31N 48°21' W 123°29'6 6.3
2015-Feb-25 20:33N 48°19' W 123°21'1 1.0
2015-Feb-25 19:33N 48°19' W 123°20'2 1.9
2015-Feb-25 18:33N 48°20' W 123°17'2 2.5
2015-Feb-25 17:33N 48°22' W 123°16'2 1.6
2015-Feb-25 16:33N 48°20' W 123°16'2 1.6
2015-Feb-25 15:33N 48°19' W 123°18'7 7.0
2015-Feb-25 14:33N 48°25' W 123°12'9 8.6
2015-Feb-25 13:33N 48°34' W 123°13'9 8.5
2015-Feb-25 12:33N 48°42' W 123°16'9 9.2
2015-Feb-25 11:33N 48°51' W 123°22'1210.2
2015-Feb-25 10:22N 48°59' W 123°35'1 0.9
2015-Feb-25 09:31N 48°58' W 123°35'8 8.7
2015-Feb-25 08:32N 48°53' W 123°26'7 7.0
2015-Feb-25 07:33N 48°47' W 123°20'5 5.4
2015-Feb-25 06:33N 48°43' W 123°26'4 3.9
2015-Feb-25 05:30N 48°40' W 123°30'3 3.5
2015-Feb-25 04:33N 48°43' W 123°31'7 6.9
2015-Feb-25 03:33N 48°43' W 123°20'8 7.6
2015-Feb-25 02:34N 48°37' W 123°13'8 8.3
2015-Feb-25 01:34N 48°29' W 123°10'8 8.3
2015-Feb-25 00:34N 48°22' W 123°18'6 5.5
2015-Feb-24 23:33N 48°22' W 123°26'4 4.4
2015-Feb-24 22:33N 48°19' W 123°31'3 3.1
2015-Feb-24 21:34N 48°22' W 123°29'2 2.2
2015-Feb-24 20:33N 48°20' W 123°29'4 3.6
2015-Feb-24 19:33N 48°21' W 123°24'4 4.5
2015-Feb-24 18:34N 48°18' W 123°19'3 2.7
2015-Feb-24 17:33N 48°18' W 123°15'2 2.4
2015-Feb-24 16:33N 48°19' W 123°18'4 4.5
2015-Feb-24 15:33N 48°23' W 123°17'7 7.2
2015-Feb-24 14:33N 48°29' W 123°12'9 8.5
2015-Feb-24 13:33N 48°38' W 123°15'8 7.7
2015-Feb-24 12:33N 48°45' W 123°21'1 1.3
2015-Feb-24 11:28N 48°45' W 123°23'7 6.7
2015-Feb-24 10:28N 48°52' W 123°25'2 2.3
2015-Feb-24 09:31N 48°51' W 123°22'6 6.1
2015-Feb-24 08:33N 48°45' W 123°22'4 3.7
2015-Feb-24 07:33N 48°43' W 123°27'9 8.6
2015-Feb-24 06:33N 48°40' W 123°15'2 2.5
2015-Feb-24 05:33N 48°42' W 123°16'8 7.5
2015-Feb-24 04:33N 48°45' W 123°05'8 8.2
2015-Feb-24 03:33N 48°53' W 123°02'1111.2
2015-Feb-24 02:33N 48°43' W 123°09'1312.7
2015-Feb-24 01:33N 48°31' W 123°14'9 9.3
2015-Feb-24 00:34N 48°22' W 123°18'6 5.6
2015-Feb-23 23:33N 48°24' W 123°26'1 0.8
2015-Feb-23 22:33N 48°24' W 123°27'  

Dump ship's entire track history